sensor_id;sensor_type;location;lat;lon;timestamp;P1;durP1;ratioP1;P2;durP2;ratioP2
14076;SDS011;7114;51.100;13.998;2023-12-14T00:02:22;20.60;;;7.75;;
14076;SDS011;7114;51.100;13.998;2023-12-14T00:04:49;21.00;;;7.97;;
14076;SDS011;7114;51.100;13.998;2023-12-14T00:07:16;20.63;;;7.82;;
14076;SDS011;7114;51.100;13.998;2023-12-14T00:09:42;21.17;;;8.25;;
14076;SDS011;7114;51.100;13.998;2023-12-14T00:12:09;19.30;;;7.77;;
14076;SDS011;7114;51.100;13.998;2023-12-14T00:14:35;19.95;;;7.63;;
14076;SDS011;7114;51.100;13.998;2023-12-14T00:17:01;20.90;;;8.40;;
14076;SDS011;7114;51.100;13.998;2023-12-14T00:19:28;22.08;;;7.60;;
14076;SDS011;7114;51.100;13.998;2023-12-14T00:21:54;21.75;;;8.45;;
14076;SDS011;7114;51.100;13.998;2023-12-14T00:24:22;20.73;;;7.50;;
14076;SDS011;7114;51.100;13.998;2023-12-14T00:26:48;21.58;;;8.02;;
14076;SDS011;7114;51.100;13.998;2023-12-14T00:29:14;24.17;;;8.75;;
14076;SDS011;7114;51.100;13.998;2023-12-14T00:31:40;21.25;;;7.82;;
14076;SDS011;7114;51.100;13.998;2023-12-14T00:34:07;21.40;;;8.20;;
14076;SDS011;7114;51.100;13.998;2023-12-14T00:36:33;20.57;;;8.00;;
14076;SDS011;7114;51.100;13.998;2023-12-14T00:38:59;20.77;;;7.55;;
14076;SDS011;7114;51.100;13.998;2023-12-14T00:41:27;20.70;;;7.95;;
14076;SDS011;7114;51.100;13.998;2023-12-14T00:43:53;20.58;;;7.45;;
14076;SDS011;7114;51.100;13.998;2023-12-14T00:46:19;19.08;;;7.00;;
14076;SDS011;7114;51.100;13.998;2023-12-14T00:48:46;21.17;;;7.70;;
14076;SDS011;7114;51.100;13.998;2023-12-14T00:51:12;20.10;;;6.95;;
14076;SDS011;7114;51.100;13.998;2023-12-14T00:53:39;19.65;;;7.65;;
14076;SDS011;7114;51.100;13.998;2023-12-14T00:56:07;17.45;;;6.95;;
14076;SDS011;7114;51.100;13.998;2023-12-14T00:58:35;18.70;;;6.88;;
14076;SDS011;7114;51.100;13.998;2023-12-14T01:01:01;18.10;;;6.70;;
14076;SDS011;7114;51.100;13.998;2023-12-14T01:03:28;17.98;;;6.28;;
14076;SDS011;7114;51.100;13.998;2023-12-14T01:05:54;17.55;;;6.65;;
14076;SDS011;7114;51.100;13.998;2023-12-14T01:08:20;19.00;;;7.10;;
14076;SDS011;7114;51.100;13.998;2023-12-14T01:10:47;20.77;;;7.28;;
14076;SDS011;7114;51.100;13.998;2023-12-14T01:13:13;17.40;;;6.80;;
14076;SDS011;7114;51.100;13.998;2023-12-14T01:15:41;20.83;;;7.53;;
14076;SDS011;7114;51.100;13.998;2023-12-14T01:18:07;19.13;;;7.15;;
14076;SDS011;7114;51.100;13.998;2023-12-14T01:20:34;19.00;;;7.03;;
14076;SDS011;7114;51.100;13.998;2023-12-14T01:23:00;18.38;;;7.00;;
14076;SDS011;7114;51.100;13.998;2023-12-14T01:25:27;18.07;;;6.97;;
14076;SDS011;7114;51.100;13.998;2023-12-14T01:27:53;20.38;;;7.20;;
14076;SDS011;7114;51.100;13.998;2023-12-14T01:30:19;18.33;;;6.95;;
14076;SDS011;7114;51.100;13.998;2023-12-14T01:32:47;17.50;;;6.78;;
14076;SDS011;7114;51.100;13.998;2023-12-14T01:35:13;19.98;;;7.35;;
14076;SDS011;7114;51.100;13.998;2023-12-14T01:37:40;17.23;;;6.57;;
14076;SDS011;7114;51.100;13.998;2023-12-14T01:40:07;19.55;;;7.45;;
14076;SDS011;7114;51.100;13.998;2023-12-14T01:42:34;19.42;;;7.68;;
14076;SDS011;7114;51.100;13.998;2023-12-14T01:45:00;19.67;;;6.80;;
14076;SDS011;7114;51.100;13.998;2023-12-14T01:47:26;20.30;;;7.05;;
14076;SDS011;7114;51.100;13.998;2023-12-14T01:49:54;20.47;;;7.00;;
14076;SDS011;7114;51.100;13.998;2023-12-14T01:52:20;19.50;;;7.55;;
14076;SDS011;7114;51.100;13.998;2023-12-14T01:54:46;19.25;;;7.38;;
14076;SDS011;7114;51.100;13.998;2023-12-14T01:57:12;20.55;;;6.97;;
14076;SDS011;7114;51.100;13.998;2023-12-14T01:59:39;17.75;;;7.22;;
14076;SDS011;7114;51.100;13.998;2023-12-14T02:02:05;19.37;;;7.07;;
14076;SDS011;7114;51.100;13.998;2023-12-14T02:04:32;16.98;;;6.50;;
14076;SDS011;7114;51.100;13.998;2023-12-14T02:07:00;18.38;;;6.43;;
14076;SDS011;7114;51.100;13.998;2023-12-14T02:09:26;17.58;;;6.57;;
14076;SDS011;7114;51.100;13.998;2023-12-14T02:11:52;18.67;;;6.97;;
14076;SDS011;7114;51.100;13.998;2023-12-14T02:14:21;16.13;;;6.33;;
14076;SDS011;7114;51.100;13.998;2023-12-14T02:16:47;20.70;;;7.10;;
14076;SDS011;7114;51.100;13.998;2023-12-14T02:19:14;16.63;;;6.32;;
14076;SDS011;7114;51.100;13.998;2023-12-14T02:21:40;17.33;;;6.40;;
14076;SDS011;7114;51.100;13.998;2023-12-14T02:24:08;18.50;;;6.88;;
14076;SDS011;7114;51.100;13.998;2023-12-14T02:26:34;16.83;;;6.27;;
14076;SDS011;7114;51.100;13.998;2023-12-14T02:29:00;18.10;;;6.60;;
14076;SDS011;7114;51.100;13.998;2023-12-14T02:31:27;17.25;;;6.65;;
14076;SDS011;7114;51.100;13.998;2023-12-14T02:33:53;14.90;;;5.65;;
14076;SDS011;7114;51.100;13.998;2023-12-14T02:36:19;16.15;;;6.05;;
14076;SDS011;7114;51.100;13.998;2023-12-14T02:38:45;15.37;;;5.60;;
14076;SDS011;7114;51.100;13.998;2023-12-14T02:41:13;15.45;;;5.93;;
14076;SDS011;7114;51.100;13.998;2023-12-14T02:43:40;16.70;;;6.60;;
14076;SDS011;7114;51.100;13.998;2023-12-14T02:46:07;16.92;;;6.88;;
14076;SDS011;7114;51.100;13.998;2023-12-14T02:48:34;17.95;;;6.30;;
14076;SDS011;7114;51.100;13.998;2023-12-14T02:51:01;18.00;;;6.43;;
14076;SDS011;7114;51.100;13.998;2023-12-14T02:53:27;15.27;;;6.43;;
14076;SDS011;7114;51.100;13.998;2023-12-14T02:55:54;17.38;;;7.00;;
14076;SDS011;7114;51.100;13.998;2023-12-14T02:58:21;17.83;;;6.60;;
14076;SDS011;7114;51.100;13.998;2023-12-14T03:00:48;17.92;;;6.88;;
14076;SDS011;7114;51.100;13.998;2023-12-14T03:03:14;16.37;;;6.60;;
14076;SDS011;7114;51.100;13.998;2023-12-14T03:05:39;17.20;;;6.65;;
14076;SDS011;7114;51.100;13.998;2023-12-14T03:08:05;16.93;;;6.53;;
14076;SDS011;7114;51.100;13.998;2023-12-14T03:10:32;17.05;;;6.63;;
14076;SDS011;7114;51.100;13.998;2023-12-14T03:12:58;16.27;;;7.15;;
14076;SDS011;7114;51.100;13.998;2023-12-14T03:15:26;17.40;;;6.45;;
14076;SDS011;7114;51.100;13.998;2023-12-14T03:17:52;15.80;;;6.45;;
14076;SDS011;7114;51.100;13.998;2023-12-14T03:20:19;15.60;;;6.17;;
14076;SDS011;7114;51.100;13.998;2023-12-14T03:22:45;16.83;;;7.10;;
14076;SDS011;7114;51.100;13.998;2023-12-14T03:25:12;16.55;;;6.57;;
14076;SDS011;7114;51.100;13.998;2023-12-14T03:27:39;16.25;;;5.95;;
14076;SDS011;7114;51.100;13.998;2023-12-14T03:30:06;15.10;;;5.97;;
14076;SDS011;7114;51.100;13.998;2023-12-14T03:32:36;17.43;;;6.13;;
14076;SDS011;7114;51.100;13.998;2023-12-14T03:35:02;18.05;;;6.90;;
14076;SDS011;7114;51.100;13.998;2023-12-14T03:37:29;16.08;;;6.80;;
14076;SDS011;7114;51.100;13.998;2023-12-14T03:39:56;15.63;;;6.13;;
14076;SDS011;7114;51.100;13.998;2023-12-14T03:42:22;18.40;;;7.50;;
14076;SDS011;7114;51.100;13.998;2023-12-14T03:44:48;16.57;;;6.23;;
14076;SDS011;7114;51.100;13.998;2023-12-14T03:47:14;17.95;;;6.05;;
14076;SDS011;7114;51.100;13.998;2023-12-14T03:49:43;15.85;;;6.50;;
14076;SDS011;7114;51.100;13.998;2023-12-14T03:52:09;16.65;;;6.15;;
14076;SDS011;7114;51.100;13.998;2023-12-14T03:54:36;14.45;;;5.78;;
14076;SDS011;7114;51.100;13.998;2023-12-14T03:57:02;16.00;;;6.43;;
14076;SDS011;7114;51.100;13.998;2023-12-14T03:59:29;17.00;;;6.55;;
14076;SDS011;7114;51.100;13.998;2023-12-14T04:01:57;20.45;;;7.15;;
14076;SDS011;7114;51.100;13.998;2023-12-14T04:04:23;15.57;;;6.30;;
14076;SDS011;7114;51.100;13.998;2023-12-14T04:06:51;19.00;;;7.00;;
14076;SDS011;7114;51.100;13.998;2023-12-14T04:09:18;16.80;;;6.87;;
14076;SDS011;7114;51.100;13.998;2023-12-14T04:11:44;16.10;;;6.72;;
14076;SDS011;7114;51.100;13.998;2023-12-14T04:14:10;16.38;;;6.40;;
14076;SDS011;7114;51.100;13.998;2023-12-14T04:16:36;18.20;;;7.35;;
14076;SDS011;7114;51.100;13.998;2023-12-14T04:19:03;18.15;;;6.88;;
14076;SDS011;7114;51.100;13.998;2023-12-14T04:21:34;19.30;;;7.00;;
14076;SDS011;7114;51.100;13.998;2023-12-14T04:24:02;18.27;;;7.50;;
14076;SDS011;7114;51.100;13.998;2023-12-14T04:26:28;19.33;;;8.18;;
14076;SDS011;7114;51.100;13.998;2023-12-14T04:28:55;19.23;;;8.07;;
14076;SDS011;7114;51.100;13.998;2023-12-14T04:31:22;19.40;;;7.30;;
14076;SDS011;7114;51.100;13.998;2023-12-14T04:33:49;19.80;;;8.23;;
14076;SDS011;7114;51.100;13.998;2023-12-14T04:36:15;18.00;;;7.43;;
14076;SDS011;7114;51.100;13.998;2023-12-14T04:38:42;18.98;;;7.53;;
14076;SDS011;7114;51.100;13.998;2023-12-14T04:41:12;19.35;;;7.57;;
14076;SDS011;7114;51.100;13.998;2023-12-14T04:43:38;17.80;;;6.93;;
14076;SDS011;7114;51.100;13.998;2023-12-14T04:46:05;22.87;;;7.50;;
14076;SDS011;7114;51.100;13.998;2023-12-14T04:48:31;19.65;;;7.25;;
14076;SDS011;7114;51.100;13.998;2023-12-14T04:50:57;18.30;;;7.75;;
14076;SDS011;7114;51.100;13.998;2023-12-14T04:53:24;20.48;;;8.20;;
14076;SDS011;7114;51.100;13.998;2023-12-14T04:55:49;20.97;;;8.00;;
14076;SDS011;7114;51.100;13.998;2023-12-14T04:58:16;21.70;;;8.27;;
14076;SDS011;7114;51.100;13.998;2023-12-14T05:00:43;21.90;;;8.40;;
14076;SDS011;7114;51.100;13.998;2023-12-14T05:03:09;21.45;;;8.27;;
14076;SDS011;7114;51.100;13.998;2023-12-14T05:05:36;21.27;;;8.38;;
14076;SDS011;7114;51.100;13.998;2023-12-14T05:08:02;22.42;;;8.07;;
14076;SDS011;7114;51.100;13.998;2023-12-14T05:10:29;23.27;;;9.10;;
14076;SDS011;7114;51.100;13.998;2023-12-14T05:12:55;24.50;;;8.50;;
14076;SDS011;7114;51.100;13.998;2023-12-14T05:15:22;24.67;;;9.15;;
14076;SDS011;7114;51.100;13.998;2023-12-14T05:17:49;30.38;;;9.68;;
14076;SDS011;7114;51.100;13.998;2023-12-14T05:20:15;25.35;;;10.05;;
14076;SDS011;7114;51.100;13.998;2023-12-14T05:22:41;25.67;;;9.68;;
14076;SDS011;7114;51.100;13.998;2023-12-14T05:25:08;27.10;;;10.90;;
14076;SDS011;7114;51.100;13.998;2023-12-14T05:27:34;26.38;;;10.20;;
14076;SDS011;7114;51.100;13.998;2023-12-14T05:30:01;28.55;;;11.00;;
14076;SDS011;7114;51.100;13.998;2023-12-14T05:32:29;30.48;;;11.63;;
14076;SDS011;7114;51.100;13.998;2023-12-14T05:34:55;29.58;;;10.65;;
14076;SDS011;7114;51.100;13.998;2023-12-14T05:37:21;32.90;;;11.20;;
14076;SDS011;7114;51.100;13.998;2023-12-14T05:39:48;29.42;;;11.38;;
14076;SDS011;7114;51.100;13.998;2023-12-14T05:42:15;32.50;;;11.90;;
14076;SDS011;7114;51.100;13.998;2023-12-14T05:44:42;29.95;;;11.02;;
14076;SDS011;7114;51.100;13.998;2023-12-14T05:47:09;31.67;;;11.80;;
14076;SDS011;7114;51.100;13.998;2023-12-14T05:49:40;28.93;;;11.27;;
14076;SDS011;7114;51.100;13.998;2023-12-14T05:52:07;27.27;;;11.02;;
14076;SDS011;7114;51.100;13.998;2023-12-14T05:54:35;29.02;;;11.98;;
14076;SDS011;7114;51.100;13.998;2023-12-14T05:57:02;30.10;;;11.95;;
14076;SDS011;7114;51.100;13.998;2023-12-14T05:59:28;26.70;;;10.77;;
14076;SDS011;7114;51.100;13.998;2023-12-14T06:01:56;25.40;;;10.77;;
14076;SDS011;7114;51.100;13.998;2023-12-14T06:04:23;22.90;;;10.07;;
14076;SDS011;7114;51.100;13.998;2023-12-14T06:06:50;23.92;;;10.15;;
14076;SDS011;7114;51.100;13.998;2023-12-14T06:09:16;27.67;;;10.63;;
14076;SDS011;7114;51.100;13.998;2023-12-14T06:11:44;23.98;;;9.82;;
14076;SDS011;7114;51.100;13.998;2023-12-14T06:14:11;24.87;;;9.80;;
14076;SDS011;7114;51.100;13.998;2023-12-14T06:16:37;25.17;;;9.82;;
14076;SDS011;7114;51.100;13.998;2023-12-14T06:19:04;23.92;;;10.30;;
14076;SDS011;7114;51.100;13.998;2023-12-14T06:21:30;22.55;;;9.52;;
14076;SDS011;7114;51.100;13.998;2023-12-14T06:23:57;25.40;;;10.15;;
14076;SDS011;7114;51.100;13.998;2023-12-14T06:26:24;22.50;;;9.63;;
14076;SDS011;7114;51.100;13.998;2023-12-14T06:28:50;24.55;;;9.73;;
14076;SDS011;7114;51.100;13.998;2023-12-14T06:31:18;23.48;;;9.20;;
14076;SDS011;7114;51.100;13.998;2023-12-14T06:33:46;20.50;;;8.88;;
14076;SDS011;7114;51.100;13.998;2023-12-14T06:36:13;22.63;;;9.45;;
14076;SDS011;7114;51.100;13.998;2023-12-14T06:38:39;22.47;;;9.13;;
14076;SDS011;7114;51.100;13.998;2023-12-14T06:41:07;20.67;;;8.20;;
14076;SDS011;7114;51.100;13.998;2023-12-14T06:43:34;20.95;;;9.23;;
14076;SDS011;7114;51.100;13.998;2023-12-14T06:46:00;21.40;;;8.60;;
14076;SDS011;7114;51.100;13.998;2023-12-14T06:48:27;19.30;;;8.50;;
14076;SDS011;7114;51.100;13.998;2023-12-14T06:50:53;20.00;;;8.37;;
14076;SDS011;7114;51.100;13.998;2023-12-14T06:53:19;21.08;;;8.80;;
14076;SDS011;7114;51.100;13.998;2023-12-14T06:55:46;20.42;;;8.43;;
14076;SDS011;7114;51.100;13.998;2023-12-14T06:58:13;18.17;;;7.90;;
14076;SDS011;7114;51.100;13.998;2023-12-14T07:00:40;17.10;;;7.57;;
14076;SDS011;7114;51.100;13.998;2023-12-14T07:03:07;15.27;;;6.67;;
14076;SDS011;7114;51.100;13.998;2023-12-14T07:05:33;16.70;;;6.85;;
14076;SDS011;7114;51.100;13.998;2023-12-14T07:08:00;15.52;;;6.47;;
14076;SDS011;7114;51.100;13.998;2023-12-14T07:10:26;15.93;;;6.75;;
14076;SDS011;7114;51.100;13.998;2023-12-14T07:12:52;15.65;;;6.50;;
14076;SDS011;7114;51.100;13.998;2023-12-14T07:15:20;15.97;;;5.87;;
14076;SDS011;7114;51.100;13.998;2023-12-14T07:17:46;15.52;;;6.53;;
14076;SDS011;7114;51.100;13.998;2023-12-14T07:20:12;15.93;;;6.55;;
14076;SDS011;7114;51.100;13.998;2023-12-14T07:22:39;17.92;;;5.60;;
14076;SDS011;7114;51.100;13.998;2023-12-14T07:25:05;14.15;;;5.30;;
14076;SDS011;7114;51.100;13.998;2023-12-14T07:27:33;13.73;;;5.40;;
14076;SDS011;7114;51.100;13.998;2023-12-14T07:29:59;13.55;;;5.10;;
14076;SDS011;7114;51.100;13.998;2023-12-14T07:32:27;13.85;;;5.20;;
14076;SDS011;7114;51.100;13.998;2023-12-14T07:34:53;14.75;;;5.32;;
14076;SDS011;7114;51.100;13.998;2023-12-14T07:37:20;14.40;;;5.40;;
14076;SDS011;7114;51.100;13.998;2023-12-14T07:39:46;14.07;;;5.57;;
14076;SDS011;7114;51.100;13.998;2023-12-14T07:42:12;17.45;;;5.55;;
14076;SDS011;7114;51.100;13.998;2023-12-14T07:44:44;15.48;;;5.53;;
14076;SDS011;7114;51.100;13.998;2023-12-14T07:47:10;14.65;;;5.38;;
14076;SDS011;7114;51.100;13.998;2023-12-14T07:49:41;14.05;;;5.18;;
14076;SDS011;7114;51.100;13.998;2023-12-14T07:52:07;14.50;;;5.07;;
14076;SDS011;7114;51.100;13.998;2023-12-14T07:54:34;14.32;;;5.25;;
14076;SDS011;7114;51.100;13.998;2023-12-14T07:57:01;14.00;;;5.50;;
14076;SDS011;7114;51.100;13.998;2023-12-14T07:59:27;14.35;;;5.75;;
14076;SDS011;7114;51.100;13.998;2023-12-14T08:01:54;14.18;;;5.03;;
14076;SDS011;7114;51.100;13.998;2023-12-14T08:04:21;12.07;;;5.13;;
14076;SDS011;7114;51.100;13.998;2023-12-14T08:06:49;12.75;;;4.95;;
14076;SDS011;7114;51.100;13.998;2023-12-14T08:09:16;12.20;;;5.13;;
14076;SDS011;7114;51.100;13.998;2023-12-14T08:11:42;12.20;;;5.55;;
14076;SDS011;7114;51.100;13.998;2023-12-14T08:14:08;13.98;;;5.20;;
14076;SDS011;7114;51.100;13.998;2023-12-14T08:16:35;12.37;;;4.80;;
14076;SDS011;7114;51.100;13.998;2023-12-14T08:19:01;13.25;;;5.60;;
14076;SDS011;7114;51.100;13.998;2023-12-14T08:21:27;13.70;;;5.70;;
14076;SDS011;7114;51.100;13.998;2023-12-14T08:23:55;15.70;;;6.50;;
14076;SDS011;7114;51.100;13.998;2023-12-14T08:26:21;18.23;;;7.53;;
14076;SDS011;7114;51.100;13.998;2023-12-14T08:28:48;20.13;;;7.83;;
14076;SDS011;7114;51.100;13.998;2023-12-14T08:31:14;20.10;;;7.60;;
14076;SDS011;7114;51.100;13.998;2023-12-14T08:33:41;16.08;;;6.30;;
14076;SDS011;7114;51.100;13.998;2023-12-14T08:36:07;15.85;;;6.60;;
14076;SDS011;7114;51.100;13.998;2023-12-14T08:38:34;15.57;;;6.20;;
14076;SDS011;7114;51.100;13.998;2023-12-14T08:41:02;16.57;;;5.90;;
14076;SDS011;7114;51.100;13.998;2023-12-14T08:43:28;16.98;;;6.28;;
14076;SDS011;7114;51.100;13.998;2023-12-14T08:45:54;15.32;;;5.70;;
14076;SDS011;7114;51.100;13.998;2023-12-14T08:48:21;15.88;;;5.85;;
14076;SDS011;7114;51.100;13.998;2023-12-14T08:50:47;15.55;;;5.45;;
14076;SDS011;7114;51.100;13.998;2023-12-14T08:53:13;15.47;;;5.37;;
14076;SDS011;7114;51.100;13.998;2023-12-14T08:55:39;13.98;;;5.00;;
14076;SDS011;7114;51.100;13.998;2023-12-14T08:58:07;13.93;;;5.00;;
14076;SDS011;7114;51.100;13.998;2023-12-14T09:00:33;14.32;;;4.68;;
14076;SDS011;7114;51.100;13.998;2023-12-14T09:03:00;13.70;;;5.20;;
14076;SDS011;7114;51.100;13.998;2023-12-14T09:05:26;12.63;;;4.77;;
14076;SDS011;7114;51.100;13.998;2023-12-14T09:07:53;13.73;;;4.82;;
14076;SDS011;7114;51.100;13.998;2023-12-14T09:10:21;13.07;;;4.65;;
14076;SDS011;7114;51.100;13.998;2023-12-14T09:12:47;11.52;;;4.03;;
14076;SDS011;7114;51.100;13.998;2023-12-14T09:15:15;12.65;;;4.22;;
14076;SDS011;7114;51.100;13.998;2023-12-14T09:17:42;11.97;;;4.00;;
14076;SDS011;7114;51.100;13.998;2023-12-14T09:20:09;12.95;;;4.13;;
14076;SDS011;7114;51.100;13.998;2023-12-14T09:22:36;10.48;;;2.90;;
14076;SDS011;7114;51.100;13.998;2023-12-14T09:25:02;8.95;;;2.78;;
14076;SDS011;7114;51.100;13.998;2023-12-14T09:27:29;9.25;;;3.40;;
14076;SDS011;7114;51.100;13.998;2023-12-14T09:29:56;9.33;;;2.70;;
14076;SDS011;7114;51.100;13.998;2023-12-14T09:32:24;8.88;;;2.40;;
14076;SDS011;7114;51.100;13.998;2023-12-14T09:34:50;8.48;;;2.40;;
14076;SDS011;7114;51.100;13.998;2023-12-14T09:37:17;9.65;;;2.78;;
14076;SDS011;7114;51.100;13.998;2023-12-14T09:39:44;8.20;;;2.50;;
14076;SDS011;7114;51.100;13.998;2023-12-14T09:42:11;9.07;;;2.83;;
14076;SDS011;7114;51.100;13.998;2023-12-14T09:44:37;9.82;;;2.90;;
14076;SDS011;7114;51.100;13.998;2023-12-14T09:47:04;10.45;;;2.70;;
14076;SDS011;7114;51.100;13.998;2023-12-14T09:49:32;9.25;;;2.35;;
14076;SDS011;7114;51.100;13.998;2023-12-14T09:51:59;8.95;;;2.30;;
14076;SDS011;7114;51.100;13.998;2023-12-14T09:54:26;8.53;;;2.30;;
14076;SDS011;7114;51.100;13.998;2023-12-14T09:56:53;8.48;;;2.25;;
14076;SDS011;7114;51.100;13.998;2023-12-14T09:59:20;7.32;;;2.28;;
14076;SDS011;7114;51.100;13.998;2023-12-14T10:01:47;7.78;;;2.03;;
14076;SDS011;7114;51.100;13.998;2023-12-14T10:04:14;10.93;;;2.40;;
14076;SDS011;7114;51.100;13.998;2023-12-14T10:06:43;7.43;;;2.00;;
14076;SDS011;7114;51.100;13.998;2023-12-14T10:09:10;9.52;;;2.13;;
14076;SDS011;7114;51.100;13.998;2023-12-14T10:11:38;6.72;;;1.90;;
14076;SDS011;7114;51.100;13.998;2023-12-14T10:14:10;6.82;;;1.90;;
14076;SDS011;7114;51.100;13.998;2023-12-14T10:16:44;6.72;;;1.90;;
14076;SDS011;7114;51.100;13.998;2023-12-14T10:19:10;6.53;;;1.70;;
14076;SDS011;7114;51.100;13.998;2023-12-14T10:21:37;6.28;;;1.60;;
14076;SDS011;7114;51.100;13.998;2023-12-14T10:24:05;6.80;;;1.95;;
14076;SDS011;7114;51.100;13.998;2023-12-14T10:26:33;7.72;;;1.67;;
14076;SDS011;7114;51.100;13.998;2023-12-14T10:28:59;7.35;;;1.60;;
14076;SDS011;7114;51.100;13.998;2023-12-14T10:31:25;6.20;;;1.50;;
14076;SDS011;7114;51.100;13.998;2023-12-14T10:33:51;6.18;;;1.33;;
14076;SDS011;7114;51.100;13.998;2023-12-14T10:36:18;6.90;;;1.50;;
14076;SDS011;7114;51.100;13.998;2023-12-14T10:38:47;7.05;;;1.77;;
14076;SDS011;7114;51.100;13.998;2023-12-14T10:41:16;8.27;;;1.77;;
14076;SDS011;7114;51.100;13.998;2023-12-14T10:43:43;7.40;;;1.90;;
14076;SDS011;7114;51.100;13.998;2023-12-14T10:46:10;7.20;;;1.70;;
14076;SDS011;7114;51.100;13.998;2023-12-14T10:48:36;5.88;;;1.33;;
14076;SDS011;7114;51.100;13.998;2023-12-14T10:51:04;7.43;;;1.52;;
14076;SDS011;7114;51.100;13.998;2023-12-14T10:53:31;6.90;;;1.70;;
14076;SDS011;7114;51.100;13.998;2023-12-14T10:55:58;7.43;;;1.93;;
14076;SDS011;7114;51.100;13.998;2023-12-14T10:58:36;6.90;;;1.80;;
14076;SDS011;7114;51.100;13.998;2023-12-14T11:01:12;7.88;;;1.85;;
14076;SDS011;7114;51.100;13.998;2023-12-14T11:03:40;6.53;;;1.70;;
14076;SDS011;7114;51.100;13.998;2023-12-14T11:06:15;6.93;;;1.73;;
14076;SDS011;7114;51.100;13.998;2023-12-14T11:08:58;6.83;;;1.80;;
14076;SDS011;7114;51.100;13.998;2023-12-14T11:11:28;7.00;;;1.92;;
14076;SDS011;7114;51.100;13.998;2023-12-14T11:13:57;7.10;;;1.70;;
14076;SDS011;7114;51.100;13.998;2023-12-14T11:16:23;6.82;;;1.70;;
14076;SDS011;7114;51.100;13.998;2023-12-14T11:22:09;7.23;;;1.73;;
14076;SDS011;7114;51.100;13.998;2023-12-14T11:24:41;7.25;;;1.90;;
14076;SDS011;7114;51.100;13.998;2023-12-14T11:27:08;7.20;;;2.10;;
14076;SDS011;7114;51.100;13.998;2023-12-14T11:29:37;8.85;;;2.30;;
14076;SDS011;7114;51.100;13.998;2023-12-14T11:32:03;7.57;;;1.90;;
14076;SDS011;7114;51.100;13.998;2023-12-14T11:34:32;7.33;;;2.07;;
14076;SDS011;7114;51.100;13.998;2023-12-14T11:37:01;8.85;;;2.53;;
14076;SDS011;7114;51.100;13.998;2023-12-14T11:39:29;8.88;;;2.60;;
14076;SDS011;7114;51.100;13.998;2023-12-14T11:41:59;8.57;;;2.20;;
14076;SDS011;7114;51.100;13.998;2023-12-14T11:44:26;10.05;;;2.40;;
14076;SDS011;7114;51.100;13.998;2023-12-14T11:46:54;10.00;;;2.70;;
14076;SDS011;7114;51.100;13.998;2023-12-14T11:49:23;8.63;;;2.35;;
14076;SDS011;7114;51.100;13.998;2023-12-14T11:51:50;9.00;;;2.10;;
14076;SDS011;7114;51.100;13.998;2023-12-14T11:54:17;9.73;;;2.45;;
14076;SDS011;7114;51.100;13.998;2023-12-14T11:56:45;9.27;;;2.53;;
14076;SDS011;7114;51.100;13.998;2023-12-14T11:59:12;9.67;;;2.30;;
14076;SDS011;7114;51.100;13.998;2023-12-14T12:01:39;9.02;;;2.30;;
14076;SDS011;7114;51.100;13.998;2023-12-14T12:04:09;10.32;;;2.65;;
14076;SDS011;7114;51.100;13.998;2023-12-14T12:06:36;7.75;;;2.17;;
14076;SDS011;7114;51.100;13.998;2023-12-14T12:09:02;13.25;;;2.20;;
14076;SDS011;7114;51.100;13.998;2023-12-14T12:11:33;9.53;;;2.40;;
14076;SDS011;7114;51.100;13.998;2023-12-14T12:13:59;7.90;;;2.00;;
14076;SDS011;7114;51.100;13.998;2023-12-14T12:16:26;10.63;;;2.67;;
14076;SDS011;7114;51.100;13.998;2023-12-14T12:18:52;10.73;;;2.50;;
14076;SDS011;7114;51.100;13.998;2023-12-14T12:21:20;9.43;;;2.70;;
14076;SDS011;7114;51.100;13.998;2023-12-14T12:23:46;10.63;;;2.60;;
14076;SDS011;7114;51.100;13.998;2023-12-14T12:26:13;10.57;;;3.03;;
14076;SDS011;7114;51.100;13.998;2023-12-14T12:28:39;10.93;;;3.05;;
14076;SDS011;7114;51.100;13.998;2023-12-14T12:31:05;9.13;;;2.92;;
14076;SDS011;7114;51.100;13.998;2023-12-14T12:33:32;8.70;;;2.38;;
14076;SDS011;7114;51.100;13.998;2023-12-14T12:36:02;9.50;;;2.53;;
14076;SDS011;7114;51.100;13.998;2023-12-14T12:38:32;10.15;;;3.20;;
14076;SDS011;7114;51.100;13.998;2023-12-14T12:40:58;9.07;;;2.72;;
14076;SDS011;7114;51.100;13.998;2023-12-14T12:43:25;10.45;;;3.20;;
14076;SDS011;7114;51.100;13.998;2023-12-14T12:45:52;9.80;;;2.78;;
14076;SDS011;7114;51.100;13.998;2023-12-14T12:48:18;11.27;;;3.13;;
14076;SDS011;7114;51.100;13.998;2023-12-14T12:50:45;11.30;;;3.00;;
14076;SDS011;7114;51.100;13.998;2023-12-14T12:53:12;9.70;;;3.30;;
14076;SDS011;7114;51.100;13.998;2023-12-14T12:55:39;11.95;;;3.70;;
14076;SDS011;7114;51.100;13.998;2023-12-14T12:58:05;11.45;;;3.83;;
14076;SDS011;7114;51.100;13.998;2023-12-14T13:00:32;12.10;;;3.63;;
14076;SDS011;7114;51.100;13.998;2023-12-14T13:03:00;12.52;;;3.83;;
14076;SDS011;7114;51.100;13.998;2023-12-14T13:05:27;13.90;;;4.00;;
14076;SDS011;7114;51.100;13.998;2023-12-14T13:07:54;12.65;;;3.72;;
14076;SDS011;7114;51.100;13.998;2023-12-14T13:10:22;12.30;;;3.80;;
14076;SDS011;7114;51.100;13.998;2023-12-14T13:12:53;11.83;;;3.60;;
14076;SDS011;7114;51.100;13.998;2023-12-14T13:15:21;11.73;;;3.10;;
14076;SDS011;7114;51.100;13.998;2023-12-14T13:17:49;11.23;;;2.90;;
14076;SDS011;7114;51.100;13.998;2023-12-14T13:20:15;11.88;;;3.47;;
14076;SDS011;7114;51.100;13.998;2023-12-14T13:22:43;13.05;;;3.92;;
14076;SDS011;7114;51.100;13.998;2023-12-14T13:25:09;13.53;;;4.30;;
14076;SDS011;7114;51.100;13.998;2023-12-14T13:27:35;13.93;;;4.70;;
14076;SDS011;7114;51.100;13.998;2023-12-14T13:30:03;14.07;;;4.47;;
14076;SDS011;7114;51.100;13.998;2023-12-14T13:32:31;11.98;;;3.85;;
14076;SDS011;7114;51.100;13.998;2023-12-14T13:34:58;12.98;;;4.47;;
14076;SDS011;7114;51.100;13.998;2023-12-14T13:37:24;14.50;;;4.70;;
14076;SDS011;7114;51.100;13.998;2023-12-14T13:39:51;14.60;;;5.03;;
14076;SDS011;7114;51.100;13.998;2023-12-14T13:42:18;15.27;;;4.90;;
14076;SDS011;7114;51.100;13.998;2023-12-14T13:44:45;13.05;;;4.30;;
14076;SDS011;7114;51.100;13.998;2023-12-14T13:47:12;12.80;;;4.20;;
14076;SDS011;7114;51.100;13.998;2023-12-14T13:49:38;13.43;;;4.60;;
14076;SDS011;7114;51.100;13.998;2023-12-14T13:52:05;16.05;;;5.55;;
14076;SDS011;7114;51.100;13.998;2023-12-14T13:54:31;14.77;;;4.90;;
14076;SDS011;7114;51.100;13.998;2023-12-14T13:56:58;14.77;;;4.93;;
14076;SDS011;7114;51.100;13.998;2023-12-14T13:59:27;12.18;;;3.92;;
14076;SDS011;7114;51.100;13.998;2023-12-14T14:01:53;11.03;;;3.47;;
14076;SDS011;7114;51.100;13.998;2023-12-14T14:04:21;10.20;;;3.10;;
14076;SDS011;7114;51.100;13.998;2023-12-14T14:06:48;11.25;;;3.63;;
14076;SDS011;7114;51.100;13.998;2023-12-14T14:09:14;11.90;;;3.65;;
14076;SDS011;7114;51.100;13.998;2023-12-14T14:11:40;10.70;;;3.42;;
14076;SDS011;7114;51.100;13.998;2023-12-14T14:14:10;11.07;;;3.60;;
14076;SDS011;7114;51.100;13.998;2023-12-14T14:16:37;11.70;;;3.60;;
14076;SDS011;7114;51.100;13.998;2023-12-14T14:19:06;11.50;;;3.58;;
14076;SDS011;7114;51.100;13.998;2023-12-14T14:21:33;12.98;;;4.22;;
14076;SDS011;7114;51.100;13.998;2023-12-14T14:24:00;12.02;;;4.15;;
14076;SDS011;7114;51.100;13.998;2023-12-14T14:26:26;10.57;;;3.67;;
14076;SDS011;7114;51.100;13.998;2023-12-14T14:28:53;9.95;;;3.03;;
14076;SDS011;7114;51.100;13.998;2023-12-14T14:31:24;10.25;;;3.65;;
14076;SDS011;7114;51.100;13.998;2023-12-14T14:33:54;9.35;;;2.58;;
14076;SDS011;7114;51.100;13.998;2023-12-14T14:36:21;8.93;;;2.20;;
14076;SDS011;7114;51.100;13.998;2023-12-14T14:38:48;8.63;;;2.00;;